sensor_id;sensor_type;location;lat;lon;timestamp;pressure;altitude;pressure_sealevel;temperature;humidity
64078;BME280;51039;49.696;10.808;2023-05-19T00:00:31;99076.94;;;8.94;71.56
64078;BME280;51039;49.696;10.808;2023-05-19T00:02:57;99073.19;;;8.89;72.60
64078;BME280;51039;49.696;10.808;2023-05-19T00:05:24;99076.00;;;8.87;72.20
64078;BME280;51039;49.696;10.808;2023-05-19T00:07:51;99062.78;;;8.87;72.48
64078;BME280;51039;49.696;10.808;2023-05-19T00:10:22;99066.13;;;8.81;73.36
64078;BME280;51039;49.696;10.808;2023-05-19T00:12:48;99056.91;;;8.77;73.07
64078;BME280;51039;49.696;10.808;2023-05-19T00:15:14;99059.91;;;8.74;73.79
64078;BME280;51039;49.696;10.808;2023-05-19T00:17:39;99062.56;;;8.74;73.41
64078;BME280;51039;49.696;10.808;2023-05-19T00:20:06;99051.31;;;8.72;73.45
64078;BME280;51039;49.696;10.808;2023-05-19T00:22:32;99054.63;;;8.74;74.44
64078;BME280;51039;49.696;10.808;2023-05-19T00:24:57;99057.63;;;8.71;74.83
64078;BME280;51039;49.696;10.808;2023-05-19T00:27:23;99047.22;;;8.69;74.26
64078;BME280;51039;49.696;10.808;2023-05-19T00:29:48;99045.69;;;8.75;73.90
64078;BME280;51039;49.696;10.808;2023-05-19T00:32:13;99051.94;;;8.82;73.36
64078;BME280;51039;49.696;10.808;2023-05-19T00:34:39;99045.47;;;8.84;73.02
64078;BME280;51039;49.696;10.808;2023-05-19T00:37:04;99056.03;;;8.84;73.30
64078;BME280;51039;49.696;10.808;2023-05-19T00:39:30;99049.56;;;8.87;73.28
64078;BME280;51039;49.696;10.808;2023-05-19T00:41:55;99047.31;;;8.84;73.71
64078;BME280;51039;49.696;10.808;2023-05-19T00:44:20;99049.31;;;8.82;74.15
64078;BME280;51039;49.696;10.808;2023-05-19T00:46:46;99040.34;;;8.83;73.97
64078;BME280;51039;49.696;10.808;2023-05-19T00:49:11;99049.31;;;8.82;74.54
64078;BME280;51039;49.696;10.808;2023-05-19T00:51:36;99047.81;;;8.79;74.59
64078;BME280;51039;49.696;10.808;2023-05-19T00:54:02;99045.06;;;8.73;74.93
64078;BME280;51039;49.696;10.808;2023-05-19T00:56:27;99041.13;;;8.69;75.00
64078;BME280;51039;49.696;10.808;2023-05-19T00:58:53;99040.16;;;8.61;75.97
64078;BME280;51039;49.696;10.808;2023-05-19T01:01:19;99040.53;;;8.58;75.67
64078;BME280;51039;49.696;10.808;2023-05-19T01:03:45;99036.56;;;8.54;76.17
64078;BME280;51039;49.696;10.808;2023-05-19T01:06:12;99035.09;;;8.52;76.17
64078;BME280;51039;49.696;10.808;2023-05-19T01:08:37;99036.59;;;8.46;76.93
64078;BME280;51039;49.696;10.808;2023-05-19T01:11:03;99028.34;;;8.41;76.80
64078;BME280;51039;49.696;10.808;2023-05-19T01:13:30;99028.22;;;8.34;77.02
64078;BME280;51039;49.696;10.808;2023-05-19T01:18:42;99028.25;;;8.26;77.93
64078;BME280;51039;49.696;10.808;2023-05-19T01:21:20;99026.13;;;8.21;78.70
64078;BME280;51039;49.696;10.808;2023-05-19T01:24:06;99022.19;;;8.17;79.26
64078;BME280;51039;49.696;10.808;2023-05-19T01:27:04;99018.28;;;8.05;79.76
64078;BME280;51039;49.696;10.808;2023-05-19T01:32:13;99027.34;;;8.02;79.60
64078;BME280;51039;49.696;10.808;2023-05-19T01:34:44;99028.19;;;7.95;80.28
64078;BME280;51039;49.696;10.808;2023-05-19T01:37:12;99019.97;;;7.90;80.46
64078;BME280;51039;49.696;10.808;2023-05-19T01:39:40;99018.31;;;7.89;80.07
64078;BME280;51039;49.696;10.808;2023-05-19T01:42:06;99022.25;;;7.93;80.13
64078;BME280;51039;49.696;10.808;2023-05-19T01:44:32;99019.81;;;7.91;80.55
64078;BME280;51039;49.696;10.808;2023-05-19T01:46:58;99023.75;;;7.87;80.51
64078;BME280;51039;49.696;10.808;2023-05-19T01:49:24;99020.66;;;7.83;80.45
64078;BME280;51039;49.696;10.808;2023-05-19T01:51:51;99020.81;;;7.82;81.50
64078;BME280;51039;49.696;10.808;2023-05-19T01:54:16;99019.16;;;7.81;81.29
64078;BME280;51039;49.696;10.808;2023-05-19T02:02:40;99020.31;;;7.78;81.58
64078;BME280;51039;49.696;10.808;2023-05-19T02:05:18;99019.66;;;7.76;82.08
64078;BME280;51039;49.696;10.808;2023-05-19T02:07:57;99013.91;;;7.73;82.52
64078;BME280;51039;49.696;10.808;2023-05-19T02:10:30;99012.94;;;7.74;82.25
64078;BME280;51039;49.696;10.808;2023-05-19T02:13:00;99014.88;;;7.72;82.51
64078;BME280;51039;49.696;10.808;2023-05-19T02:15:33;99008.13;;;7.69;83.08
64078;BME280;51039;49.696;10.808;2023-05-19T02:18:04;99010.63;;;7.71;82.96
64078;BME280;51039;49.696;10.808;2023-05-19T02:20:33;99011.13;;;7.66;83.49
64078;BME280;51039;49.696;10.808;2023-05-19T02:22:58;99008.13;;;7.69;82.92
64078;BME280;51039;49.696;10.808;2023-05-19T02:25:24;99010.44;;;7.72;83.08
64078;BME280;51039;49.696;10.808;2023-05-19T02:27:49;99011.28;;;7.64;83.99
64078;BME280;51039;49.696;10.808;2023-05-19T02:30:15;99011.28;;;7.64;83.78
64078;BME280;51039;49.696;10.808;2023-05-19T02:32:40;99007.81;;;7.64;83.85
64078;BME280;51039;49.696;10.808;2023-05-19T02:35:05;99005.16;;;7.64;83.86
64078;BME280;51039;49.696;10.808;2023-05-19T02:37:31;98999.91;;;7.64;84.05
64078;BME280;51039;49.696;10.808;2023-05-19T02:39:56;99007.81;;;7.64;83.83
64078;BME280;51039;49.696;10.808;2023-05-19T02:42:22;98998.94;;;7.65;84.12
64078;BME280;51039;49.696;10.808;2023-05-19T02:44:47;98992.84;;;7.64;83.20
64078;BME280;51039;49.696;10.808;2023-05-19T02:47:13;98988.03;;;7.76;81.82
64078;BME280;51039;49.696;10.808;2023-05-19T02:49:38;98985.34;;;7.84;81.28
64078;BME280;51039;49.696;10.808;2023-05-19T02:52:04;98980.88;;;7.93;80.72
64078;BME280;51039;49.696;10.808;2023-05-19T02:54:30;98986.44;;;7.98;80.97
64078;BME280;51039;49.696;10.808;2023-05-19T02:56:57;98988.81;;;7.93;81.62
64078;BME280;51039;49.696;10.808;2023-05-19T02:59:23;98983.22;;;7.88;81.86
64078;BME280;51039;49.696;10.808;2023-05-19T03:01:49;98987.81;;;7.86;82.44
64078;BME280;51039;49.696;10.808;2023-05-19T03:04:15;98979.75;;;7.88;81.81
64078;BME280;51039;49.696;10.808;2023-05-19T03:06:43;98977.13;;;7.88;81.76
64078;BME280;51039;49.696;10.808;2023-05-19T03:09:09;98974.31;;;7.89;81.97
64078;BME280;51039;49.696;10.808;2023-05-19T03:11:34;98983.03;;;7.90;81.64
64078;BME280;51039;49.696;10.808;2023-05-19T03:14:00;98978.91;;;7.95;81.84
64078;BME280;51039;49.696;10.808;2023-05-19T03:16:25;98984.19;;;7.95;81.91
64078;BME280;51039;49.696;10.808;2023-05-19T03:18:51;98989.63;;;7.94;81.28
64078;BME280;51039;49.696;10.808;2023-05-19T03:21:17;98987.31;;;7.99;80.96
64078;BME280;51039;49.696;10.808;2023-05-19T03:23:42;98984.63;;;8.07;80.43
64078;BME280;51039;49.696;10.808;2023-05-19T03:26:07;98986.72;;;8.20;78.81
64078;BME280;51039;49.696;10.808;2023-05-19T03:28:33;98984.84;;;8.29;78.10
64078;BME280;51039;49.696;10.808;2023-05-19T03:30:58;98989.28;;;8.36;77.78
64078;BME280;51039;49.696;10.808;2023-05-19T03:33:23;98994.03;;;8.41;77.24
64078;BME280;51039;49.696;10.808;2023-05-19T03:35:49;98991.06;;;8.44;77.25
64078;BME280;51039;49.696;10.808;2023-05-19T03:38:14;98992.53;;;8.47;76.97
64078;BME280;51039;49.696;10.808;2023-05-19T03:40:40;98992.03;;;8.51;76.53
64078;BME280;51039;49.696;10.808;2023-05-19T03:43:05;98997.97;;;8.53;76.61
64078;BME280;51039;49.696;10.808;2023-05-19T03:45:31;98988.69;;;8.57;76.66
64078;BME280;51039;49.696;10.808;2023-05-19T03:47:57;98999.72;;;8.61;76.62
64078;BME280;51039;49.696;10.808;2023-05-19T03:50:22;98996.72;;;8.64;76.25
64078;BME280;51039;49.696;10.808;2023-05-19T03:52:47;99006.13;;;8.67;76.23
64078;BME280;51039;49.696;10.808;2023-05-19T03:55:13;99005.44;;;8.73;76.45
64078;BME280;51039;49.696;10.808;2023-05-19T03:57:38;99002.91;;;8.79;76.07
64078;BME280;51039;49.696;10.808;2023-05-19T04:00:05;99009.69;;;8.82;76.33
64078;BME280;51039;49.696;10.808;2023-05-19T04:02:31;99010.63;;;8.89;75.87
64078;BME280;51039;49.696;10.808;2023-05-19T04:04:56;99007.28;;;8.95;75.16
64078;BME280;51039;49.696;10.808;2023-05-19T04:07:22;99011.03;;;9.01;75.25
64078;BME280;51039;49.696;10.808;2023-05-19T04:09:48;99009.53;;;8.98;75.09
64078;BME280;51039;49.696;10.808;2023-05-19T04:12:14;99000.94;;;9.04;75.04
64078;BME280;51039;49.696;10.808;2023-05-19T04:14:39;99005.13;;;9.14;74.63
64078;BME280;51039;49.696;10.808;2023-05-19T04:17:04;99009.84;;;9.27;74.60
64078;BME280;51039;49.696;10.808;2023-05-19T04:19:30;99006.22;;;9.42;73.87
64078;BME280;51039;49.696;10.808;2023-05-19T04:21:55;99009.31;;;9.46;73.38
64078;BME280;51039;49.696;10.808;2023-05-19T04:24:21;99011.88;;;9.39;73.03
64078;BME280;51039;49.696;10.808;2023-05-19T04:26:46;99002.78;;;9.57;73.55
64078;BME280;51039;49.696;10.808;2023-05-19T04:29:11;99003.91;;;9.62;72.79
64078;BME280;51039;49.696;10.808;2023-05-19T04:31:38;99010.47;;;9.67;72.68
64078;BME280;51039;49.696;10.808;2023-05-19T04:34:04;99009.28;;;9.84;72.01
64078;BME280;51039;49.696;10.808;2023-05-19T04:36:31;99010.09;;;9.85;71.82
64078;BME280;51039;49.696;10.808;2023-05-19T04:38:57;99016.66;;;9.89;71.80
64078;BME280;51039;49.696;10.808;2023-05-19T04:41:30;99020.50;;;9.86;71.79
64078;BME280;51039;49.696;10.808;2023-05-19T04:43:57;99017.94;;;9.93;71.29
64078;BME280;51039;49.696;10.808;2023-05-19T04:46:23;99017.22;;;10.14;70.98
64078;BME280;51039;49.696;10.808;2023-05-19T04:48:50;99019.97;;;10.20;70.48
64078;BME280;51039;49.696;10.808;2023-05-19T04:51:15;99023.16;;;10.16;70.29
64078;BME280;51039;49.696;10.808;2023-05-19T04:53:41;99019.56;;;10.23;70.44
64078;BME280;51039;49.696;10.808;2023-05-19T04:56:08;99024.09;;;10.38;70.03
64078;BME280;51039;49.696;10.808;2023-05-19T04:58:33;99016.00;;;10.61;69.59
64078;BME280;51039;49.696;10.808;2023-05-19T05:00:59;99017.00;;;10.81;69.26
64078;BME280;51039;49.696;10.808;2023-05-19T05:03:24;99012.78;;;10.87;69.19
64078;BME280;51039;49.696;10.808;2023-05-19T05:05:50;99014.19;;;11.05;68.72
64078;BME280;51039;49.696;10.808;2023-05-19T05:08:16;99010.81;;;11.11;68.50
64078;BME280;51039;49.696;10.808;2023-05-19T05:10:47;99021.91;;;11.21;67.43
64078;BME280;51039;49.696;10.808;2023-05-19T05:13:16;99018.63;;;11.19;67.50
64078;BME280;51039;49.696;10.808;2023-05-19T05:15:42;99008.63;;;11.21;67.44
64078;BME280;51039;49.696;10.808;2023-05-19T05:18:08;99012.03;;;11.36;67.32
64078;BME280;51039;49.696;10.808;2023-05-19T05:20:33;99013.13;;;11.49;66.79
64078;BME280;51039;49.696;10.808;2023-05-19T05:22:59;99000.41;;;11.66;65.85
64078;BME280;51039;49.696;10.808;2023-05-19T05:25:25;99003.78;;;12.09;64.76
64078;BME280;51039;49.696;10.808;2023-05-19T05:27:50;99003.63;;;12.86;62.22
64078;BME280;51039;49.696;10.808;2023-05-19T05:30:16;99005.34;;;13.47;60.57
64078;BME280;51039;49.696;10.808;2023-05-19T05:32:41;98994.69;;;13.27;59.72
64078;BME280;51039;49.696;10.808;2023-05-19T05:35:06;98998.78;;;13.63;59.51
64078;BME280;51039;49.696;10.808;2023-05-19T05:37:32;98988.22;;;14.14;59.39
64078;BME280;51039;49.696;10.808;2023-05-19T05:39:57;98991.88;;;14.72;56.23
64078;BME280;51039;49.696;10.808;2023-05-19T05:42:22;98999.16;;;16.27;51.38
64078;BME280;51039;49.696;10.808;2023-05-19T05:44:48;98996.59;;;17.00;48.17
64078;BME280;51039;49.696;10.808;2023-05-19T05:47:13;98996.19;;;17.26;47.56
64078;BME280;51039;49.696;10.808;2023-05-19T05:49:39;98991.94;;;16.46;49.62
64078;BME280;51039;49.696;10.808;2023-05-19T05:52:06;98991.88;;;16.83;48.47
64078;BME280;51039;49.696;10.808;2023-05-19T05:54:35;98992.09;;;16.33;49.04
64078;BME280;51039;49.696;10.808;2023-05-19T05:57:00;99002.09;;;16.07;50.88
64078;BME280;51039;49.696;10.808;2023-05-19T05:59:26;98994.50;;;15.86;50.53
64078;BME280;51039;49.696;10.808;2023-05-19T06:01:52;99002.38;;;16.18;50.24
64078;BME280;51039;49.696;10.808;2023-05-19T06:04:17;98996.06;;;15.94;50.21
64078;BME280;51039;49.696;10.808;2023-05-19T06:06:42;98994.63;;;15.91;51.01
64078;BME280;51039;49.696;10.808;2023-05-19T06:09:08;98993.75;;;17.37;47.88
64078;BME280;51039;49.696;10.808;2023-05-19T06:11:33;98993.06;;;17.77;46.54
64078;BME280;51039;49.696;10.808;2023-05-19T06:13:58;98993.88;;;16.58;48.95
64078;BME280;51039;49.696;10.808;2023-05-19T06:16:23;98995.00;;;16.32;50.02
64078;BME280;51039;49.696;10.808;2023-05-19T06:18:49;98996.69;;;15.20;52.12
64078;BME280;51039;49.696;10.808;2023-05-19T06:21:15;98993.97;;;14.95;52.85
64078;BME280;51039;49.696;10.808;2023-05-19T06:23:42;98998.06;;;14.66;54.06
64078;BME280;51039;49.696;10.808;2023-05-19T06:26:07;98996.03;;;14.54;54.34
64078;BME280;51039;49.696;10.808;2023-05-19T06:28:33;98996.59;;;14.25;55.63
64078;BME280;51039;49.696;10.808;2023-05-19T06:30:58;98997.22;;;14.13;54.94
64078;BME280;51039;49.696;10.808;2023-05-19T06:33:24;99005.44;;;14.19;54.62
64078;BME280;51039;49.696;10.808;2023-05-19T06:35:49;99005.94;;;13.62;56.36
64078;BME280;51039;49.696;10.808;2023-05-19T06:38:15;99007.56;;;13.77;55.65
64078;BME280;51039;49.696;10.808;2023-05-19T06:40:40;99003.47;;;13.81;56.00
64078;BME280;51039;49.696;10.808;2023-05-19T06:43:06;99001.84;;;13.66;56.20
64078;BME280;51039;49.696;10.808;2023-05-19T06:45:31;98997.16;;;13.68;55.87
64078;BME280;51039;49.696;10.808;2023-05-19T06:47:57;99000.00;;;13.67;55.87
64078;BME280;51039;49.696;10.808;2023-05-19T06:50:22;99002.66;;;13.80;55.01
64078;BME280;51039;49.696;10.808;2023-05-19T06:52:48;98999.53;;;14.03;54.67
64078;BME280;51039;49.696;10.808;2023-05-19T06:55:14;98999.00;;;15.17;52.10
64078;BME280;51039;49.696;10.808;2023-05-19T06:57:40;98995.97;;;15.31;51.94
64078;BME280;51039;49.696;10.808;2023-05-19T07:00:05;98986.03;;;14.88;52.68
64078;BME280;51039;49.696;10.808;2023-05-19T07:02:34;98994.41;;;15.74;49.96
64078;BME280;51039;49.696;10.808;2023-05-19T07:04:59;98987.59;;;15.78;50.07
64078;BME280;51039;49.696;10.808;2023-05-19T07:07:24;98989.53;;;16.08;49.37
64078;BME280;51039;49.696;10.808;2023-05-19T07:09:50;98986.00;;;16.44;48.32
64078;BME280;51039;49.696;10.808;2023-05-19T07:12:15;98981.09;;;15.67;50.06
64078;BME280;51039;49.696;10.808;2023-05-19T07:14:41;98988.84;;;15.50;50.84
64078;BME280;51039;49.696;10.808;2023-05-19T07:17:06;98989.44;;;15.78;50.28
64078;BME280;51039;49.696;10.808;2023-05-19T07:19:31;98980.53;;;15.59;50.88
64078;BME280;51039;49.696;10.808;2023-05-19T07:21:57;98983.53;;;15.94;49.16
64078;BME280;51039;49.696;10.808;2023-05-19T07:24:23;98985.41;;;15.43;50.93
64078;BME280;51039;49.696;10.808;2023-05-19T07:26:48;98989.97;;;15.86;49.97
64078;BME280;51039;49.696;10.808;2023-05-19T07:29:14;98973.63;;;16.32;48.34
64078;BME280;51039;49.696;10.808;2023-05-19T07:31:39;98976.81;;;16.40;48.84
64078;BME280;51039;49.696;10.808;2023-05-19T07:34:05;98970.88;;;16.20;49.75
64078;BME280;51039;49.696;10.808;2023-05-19T07:36:30;98975.03;;;15.97;50.59
64078;BME280;51039;49.696;10.808;2023-05-19T07:38:55;98972.75;;;16.19;50.11
64078;BME280;51039;49.696;10.808;2023-05-19T07:41:21;98970.00;;;16.07;49.50
64078;BME280;51039;49.696;10.808;2023-05-19T07:43:46;98968.28;;;15.51;51.26
64078;BME280;51039;49.696;10.808;2023-05-19T07:46:12;98969.25;;;15.38;52.05
64078;BME280;51039;49.696;10.808;2023-05-19T07:48:37;98967.44;;;15.57;51.70
64078;BME280;51039;49.696;10.808;2023-05-19T07:51:03;98970.53;;;15.79;50.84
64078;BME280;51039;49.696;10.808;2023-05-19T07:53:28;98970.97;;;16.13;50.15
64078;BME280;51039;49.696;10.808;2023-05-19T07:55:53;98969.78;;;16.58;49.01
64078;BME280;51039;49.696;10.808;2023-05-19T07:58:19;98966.72;;;16.73;48.10
64078;BME280;51039;49.696;10.808;2023-05-19T08:00:44;98964.16;;;17.43;46.26
64078;BME280;51039;49.696;10.808;2023-05-19T08:03:10;98954.88;;;17.58;46.04
64078;BME280;51039;49.696;10.808;2023-05-19T08:05:35;98952.31;;;17.87;45.86
64078;BME280;51039;49.696;10.808;2023-05-19T08:08:01;98953.72;;;17.54;46.01
64078;BME280;51039;49.696;10.808;2023-05-19T08:10:27;98944.78;;;18.12;45.01
64078;BME280;51039;49.696;10.808;2023-05-19T08:12:52;98938.03;;;19.13;43.18
64078;BME280;51039;49.696;10.808;2023-05-19T08:15:18;98940.63;;;18.62;43.71
64078;BME280;51039;49.696;10.808;2023-05-19T08:17:43;98934.75;;;19.61;42.45
64078;BME280;51039;49.696;10.808;2023-05-19T08:20:09;98933.72;;;20.29;44.21
64078;BME280;51039;49.696;10.808;2023-05-19T08:22:36;98934.22;;;19.09;42.73
64078;BME280;51039;49.696;10.808;2023-05-19T08:25:02;98939.25;;;20.17;40.97
64078;BME280;51039;49.696;10.808;2023-05-19T08:27:28;98939.28;;;22.31;36.82
64078;BME280;51039;49.696;10.808;2023-05-19T08:29:54;98940.44;;;22.97;36.01
64078;BME280;51039;49.696;10.808;2023-05-19T08:32:19;98937.53;;;22.05;37.16
64078;BME280;51039;49.696;10.808;2023-05-19T08:34:45;98924.84;;;22.00;37.53
64078;BME280;51039;49.696;10.808;2023-05-19T08:37:10;98915.06;;;23.03;35.57
64078;BME280;51039;49.696;10.808;2023-05-19T08:39:35;98918.56;;;21.89;37.99
64078;BME280;51039;49.696;10.808;2023-05-19T08:42:01;98916.97;;;21.88;38.03
64078;BME280;51039;49.696;10.808;2023-05-19T08:44:26;98912.63;;;20.43;40.65
64078;BME280;51039;49.696;10.808;2023-05-19T08:46:53;98908.22;;;19.48;42.33
64078;BME280;51039;49.696;10.808;2023-05-19T08:49:22;98907.44;;;18.97;43.06
64078;BME280;51039;49.696;10.808;2023-05-19T08:51:59;98901.22;;;18.79;44.42
64078;BME280;51039;49.696;10.808;2023-05-19T08:54:39;98908.94;;;18.30;45.43
64078;BME280;51039;49.696;10.808;2023-05-19T08:57:09;98899.06;;;17.90;45.50
64078;BME280;51039;49.696;10.808;2023-05-19T08:59:35;98903.53;;;18.13;46.00
64078;BME280;51039;49.696;10.808;2023-05-19T09:02:02;98896.41;;;18.19;46.15
64078;BME280;51039;49.696;10.808;2023-05-19T09:04:28;98892.56;;;17.39;46.95
64078;BME280;51039;49.696;10.808;2023-05-19T09:06:53;98897.47;;;17.42;47.76
64078;BME280;51039;49.696;10.808;2023-05-19T09:09:19;98900.59;;;17.39;47.10
64078;BME280;51039;49.696;10.808;2023-05-19T09:11:45;98894.78;;;17.30;47.78
64078;BME280;51039;49.696;10.808;2023-05-19T09:14:10;98885.47;;;17.44;47.47
64078;BME280;51039;49.696;10.808;2023-05-19T09:16:36;98887.59;;;17.19;47.54
64078;BME280;51039;49.696;10.808;2023-05-19T09:19:01;98875.69;;;17.38;47.55
64078;BME280;51039;49.696;10.808;2023-05-19T09:21:30;98880.22;;;17.50;46.47
64078;BME280;51039;49.696;10.808;2023-05-19T09:24:03;98869.56;;;17.90;46.87
64078;BME280;51039;49.696;10.808;2023-05-19T09:29:02;98870.13;;;18.67;45.41
64078;BME280;51039;49.696;10.808;2023-05-19T09:31:34;98873.19;;;17.96;45.20
64078;BME280;51039;49.696;10.808;2023-05-19T09:34:00;98876.09;;;17.94;45.31
64078;BME280;51039;49.696;10.808;2023-05-19T09:36:25;98880.56;;;17.65;45.92
64078;BME280;51039;49.696;10.808;2023-05-19T09:38:53;98885.56;;;17.61;46.14
64078;BME280;51039;49.696;10.808;2023-05-19T09:41:18;98882.97;;;17.90;46.36
64078;BME280;51039;49.696;10.808;2023-05-19T09:43:44;98886.72;;;17.65;45.40
64078;BME280;51039;49.696;10.808;2023-05-19T09:46:18;98878.88;;;17.76;44.96
64078;BME280;51039;49.696;10.808;2023-05-19T09:48:55;98880.59;;;18.05;44.61
64078;BME280;51039;49.696;10.808;2023-05-19T09:51:21;98881.81;;;17.86;44.35
64078;BME280;51039;49.696;10.808;2023-05-19T09:53:47;98872.59;;;17.94;43.74
64078;BME280;51039;49.696;10.808;2023-05-19T09:56:13;98876.03;;;18.35;43.59
64078;BME280;51039;49.696;10.808;2023-05-19T09:58:40;98880.50;;;18.75;41.72
64078;BME280;51039;49.696;10.808;2023-05-19T10:01:06;98872.53;;;18.63;42.00
64078;BME280;51039;49.696;10.808;2023-05-19T10:03:33;98859.91;;;18.63;42.21
64078;BME280;51039;49.696;10.808;2023-05-19T10:06:03;98872.78;;;19.12;41.73
64078;BME280;51039;49.696;10.808;2023-05-19T10:08:29;98861.41;;;18.88;40.88
64078;BME280;51039;49.696;10.808;2023-05-19T10:10:56;98868.56;;;18.82;41.16
64078;BME280;51039;49.696;10.808;2023-05-19T10:13:21;98864.97;;;18.02;41.81
64078;BME280;51039;49.696;10.808;2023-05-19T10:15:48;98866.78;;;17.85;43.22
64078;BME280;51039;49.696;10.808;2023-05-19T10:18:14;98867.91;;;18.01;42.52
64078;BME280;51039;49.696;10.808;2023-05-19T10:20:42;98856.63;;;17.87;42.58
64078;BME280;51039;49.696;10.808;2023-05-19T10:23:07;98862.16;;;18.09;42.21
64078;BME280;51039;49.696;10.808;2023-05-19T10:25:34;98847.03;;;18.49;41.66
64078;BME280;51039;49.696;10.808;2023-05-19T10:28:01;98850.69;;;18.42;41.94
64078;BME280;51039;49.696;10.808;2023-05-19T10:30:32;98853.16;;;18.44;42.05
64078;BME280;51039;49.696;10.808;2023-05-19T10:33:02;98848.59;;;18.16;42.30
64078;BME280;51039;49.696;10.808;2023-05-19T10:38:15;98841.13;;;18.97;40.98
64078;BME280;51039;49.696;10.808;2023-05-19T10:41:15;98843.50;;;19.50;39.58
64078;BME280;51039;49.696;10.808;2023-05-19T10:47:06;98828.34;;;19.05;40.53
64078;BME280;51039;49.696;10.808;2023-05-19T10:49:35;98824.25;;;19.58;40.15
64078;BME280;51039;49.696;10.808;2023-05-19T10:52:00;98821.66;;;19.68;39.81
64078;BME280;51039;49.696;10.808;2023-05-19T10:54:38;98819.00;;;19.90;39.66
64078;BME280;51039;49.696;10.808;2023-05-19T10:57:14;98817.56;;;19.83;40.32
64078;BME280;51039;49.696;10.808;2023-05-19T10:59:40;98822.09;;;19.38;40.76
64078;BME280;51039;49.696;10.808;2023-05-19T11:02:08;98819.13;;;19.56;39.99
64078;BME280;51039;49.696;10.808;2023-05-19T11:04:37;98822.25;;;19.48;40.85
64078;BME280;51039;49.696;10.808;2023-05-19T11:07:09;98823.84;;;19.49;41.29
64078;BME280;51039;49.696;10.808;2023-05-19T11:09:40;98823.31;;;19.69;41.59
64078;BME280;51039;49.696;10.808;2023-05-19T11:12:07;98818.06;;;19.57;40.18
64078;BME280;51039;49.696;10.808;2023-05-19T11:14:34;98816.22;;;19.41;39.90
64078;BME280;51039;49.696;10.808;2023-05-19T11:16:59;98807.13;;;19.86;40.69
64078;BME280;51039;49.696;10.808;2023-05-19T11:19:28;98813.50;;;19.80;39.71
64078;BME280;51039;49.696;10.808;2023-05-19T11:21:55;98808.84;;;19.53;40.35
64078;BME280;51039;49.696;10.808;2023-05-19T11:32:31;98800.91;;;19.41;40.17
64078;BME280;51039;49.696;10.808;2023-05-19T11:35:03;98811.66;;;19.19;40.60
64078;BME280;51039;49.696;10.808;2023-05-19T11:37:32;98801.06;;;19.74;39.73
64078;BME280;51039;49.696;10.808;2023-05-19T11:40:00;98801.53;;;19.93;40.02
64078;BME280;51039;49.696;10.808;2023-05-19T11:42:26;98799.41;;;19.95;38.98
64078;BME280;51039;49.696;10.808;2023-05-19T11:44:54;98798.75;;;20.10;39.57
64078;BME280;51039;49.696;10.808;2023-05-19T11:47:20;98796.38;;;19.86;39.02
64078;BME280;51039;49.696;10.808;2023-05-19T11:49:49;98785.00;;;19.79;39.61
64078;BME280;51039;49.696;10.808;2023-05-19T11:52:21;98781.63;;;19.89;38.93
64078;BME280;51039;49.696;10.808;2023-05-19T11:54:50;98789.28;;;20.02;39.38
64078;BME280;51039;49.696;10.808;2023-05-19T11:57:16;98780.88;;;19.71;40.18
64078;BME280;51039;49.696;10.808;2023-05-19T11:59:41;98785.25;;;19.33;40.24
64078;BME280;51039;49.696;10.808;2023-05-19T12:04:40;98774.94;;;19.47;40.43
64078;BME280;51039;49.696;10.808;2023-05-19T12:07:05;98788.63;;;19.68;39.97
64078;BME280;51039;49.696;10.808;2023-05-19T12:09:31;98787.41;;;20.03;39.76
64078;BME280;51039;49.696;10.808;2023-05-19T12:11:56;98780.44;;;19.57;40.56
64078;BME280;51039;49.696;10.808;2023-05-19T12:14:22;98774.16;;;20.23;39.54
64078;BME280;51039;49.696;10.808;2023-05-19T12:16:47;98778.75;;;19.73;40.31
64078;BME280;51039;49.696;10.808;2023-05-19T12:19:13;98771.25;;;20.62;38.96
64078;BME280;51039;49.696;10.808;2023-05-19T12:21:38;98770.25;;;20.73;37.63
64078;BME280;51039;49.696;10.808;2023-05-19T12:24:03;98771.59;;;20.44;37.77
64078;BME280;51039;49.696;10.808;2023-05-19T12:26:30;98762.41;;;19.80;38.51
64078;BME280;51039;49.696;10.808;2023-05-19T12:28:56;98755.44;;;19.79;39.19
64078;BME280;51039;49.696;10.808;2023-05-19T12:31:22;98754.44;;;19.63;39.40
64078;BME280;51039;49.696;10.808;2023-05-19T12:33:48;98746.59;;;19.84;39.29
64078;BME280;51039;49.696;10.808;2023-05-19T12:36:16;98750.50;;;20.30;38.22
64078;BME280;51039;49.696;10.808;2023-05-19T12:38:42;98752.78;;;20.44;38.12
64078;BME280;51039;49.696;10.808;2023-05-19T12:41:10;98743.94;;;20.48;37.77
64078;BME280;51039;49.696;10.808;2023-05-19T12:43:36;98744.78;;;20.54;37.72
64078;BME280;51039;49.696;10.808;2023-05-19T12:46:08;98750.34;;;20.10;38.20
64078;BME280;51039;49.696;10.808;2023-05-19T12:48:38;98746.28;;;20.34;38.44
64078;BME280;51039;49.696;10.808;2023-05-19T12:51:04;98743.22;;;21.01;37.56
64078;BME280;51039;49.696;10.808;2023-05-19T12:53:29;98747.63;;;20.74;37.01
64078;BME280;51039;49.696;10.808;2023-05-19T12:55:57;98751.50;;;20.89;37.73
64078;BME280;51039;49.696;10.808;2023-05-19T12:58:22;98741.88;;;20.98;36.76
64078;BME280;51039;49.696;10.808;2023-05-19T13:00:48;98731.56;;;20.85;37.68
64078;BME280;51039;49.696;10.808;2023-05-19T13:03:17;98723.03;;;20.98;36.79
64078;BME280;51039;49.696;10.808;2023-05-19T13:05:48;98731.03;;;20.50;37.68
64078;BME280;51039;49.696;10.808;2023-05-19T13:08:15;98734.97;;;20.32;37.11
64078;BME280;51039;49.696;10.808;2023-05-19T13:10:43;98721.44;;;20.59;36.67
64078;BME280;51039;49.696;10.808;2023-05-19T13:13:09;98728.22;;;20.67;37.01
64078;BME280;51039;49.696;10.808;2023-05-19T13:15:36;98731.28;;;20.49;37.14
64078;BME280;51039;49.696;10.808;2023-05-19T13:18:05;98726.41;;;20.46;37.66
64078;BME280;51039;49.696;10.808;2023-05-19T13:20:32;98718.41;;;20.93;37.08